createdAt,value
2023-02-02T00:00:20.113Z,47.65
2023-02-02T00:03:22.311Z,52.33
2023-02-02T00:06:26.894Z,51.67
2023-02-02T00:09:31.508Z,52.15
2023-02-02T00:12:33.693Z,50.50
2023-02-02T00:15:35.888Z,46.67
2023-02-02T00:18:38.050Z,51.47
2023-02-02T00:21:40.592Z,50.78
2023-02-02T00:24:42.832Z,49.85
2023-02-02T00:27:45.074Z,54.67
2023-02-02T00:30:47.255Z,49.33
2023-02-02T00:33:50.837Z,52.42
2023-02-02T00:36:53.273Z,53.25
2023-02-02T00:39:55.464Z,52.20
2023-02-02T00:42:57.733Z,51.55
2023-02-02T00:46:00.222Z,54.53
2023-02-02T00:49:02.504Z,52.15
2023-02-02T00:52:04.813Z,53.45
2023-02-02T00:55:08.057Z,48.53
2023-02-02T00:58:10.206Z,51.08
2023-02-02T01:01:21.855Z,52.38
2023-02-02T01:04:24.103Z,50.38
2023-02-02T01:07:26.416Z,52.60
2023-02-02T01:10:28.931Z,49.45
2023-02-02T01:13:31.137Z,48.17
2023-02-02T01:16:33.323Z,54.00
2023-02-02T01:19:36.404Z,53.95
2023-02-02T01:22:38.759Z,54.17
2023-02-02T01:25:41.017Z,52.78
2023-02-02T01:28:43.628Z,50.30
2023-02-02T01:31:45.939Z,51.78
2023-02-02T01:34:48.184Z,48.35
2023-02-02T01:37:50.311Z,52.92
2023-02-02T01:40:55.956Z,50.55
2023-02-02T01:44:04.589Z,50.10
2023-02-02T01:47:06.902Z,52.78
2023-02-02T01:50:11.741Z,51.58
2023-02-02T01:53:14.005Z,52.63
2023-02-02T01:56:26.953Z,50.55
2023-02-02T01:59:31.116Z,47.80
2023-02-02T02:02:33.655Z,50.88
2023-02-02T02:05:43.904Z,49.78
2023-02-02T02:11:54.231Z,46.30
2023-02-02T02:15:15.826Z,50.13
2023-02-02T02:18:40.983Z,51.92
2023-02-02T02:22:29.852Z,48.92
2023-02-02T02:25:59.748Z,48.35
2023-02-02T02:29:04.727Z,44.38
2023-02-02T02:32:27.452Z,50.08
2023-02-02T02:35:39.968Z,47.80
2023-02-02T02:38:51.809Z,51.47
2023-02-02T02:42:00.551Z,48.05
2023-02-02T02:45:04.914Z,46.50
2023-02-02T02:48:10.684Z,47.63
2023-02-02T02:51:51.023Z,48.47
2023-02-02T02:58:21.491Z,40.60
2023-02-02T03:01:48.289Z,45.75
2023-02-02T03:04:56.628Z,47.92
2023-02-02T03:08:04.491Z,47.20
2023-02-02T03:11:09.872Z,47.65
2023-02-02T03:14:12.752Z,46.53
2023-02-02T03:17:14.949Z,45.40
2023-02-02T03:20:17.843Z,45.78
2023-02-02T03:23:20.051Z,48.10
2023-02-02T03:26:22.288Z,45.72
2023-02-02T03:29:24.780Z,46.05
2023-02-02T03:32:26.994Z,47.65
2023-02-02T03:35:29.246Z,47.05
2023-02-02T03:38:31.426Z,45.58
2023-02-02T03:41:33.500Z,44.78
2023-02-02T03:44:35.798Z,47.30
2023-02-02T03:47:38.070Z,46.92
2023-02-02T03:50:40.285Z,46.63
2023-02-02T03:53:47.953Z,46.00
2023-02-02T03:56:50.244Z,49.13
2023-02-02T03:59:52.395Z,46.25
2023-02-02T04:02:55.091Z,45.15
2023-02-02T04:05:57.602Z,45.25
2023-02-02T04:08:59.788Z,46.55
2023-02-02T04:12:02.047Z,46.92
2023-02-02T04:15:04.600Z,46.40
2023-02-02T04:18:06.900Z,47.47
2023-02-02T04:21:09.582Z,45.70
2023-02-02T04:24:13.389Z,45.30
2023-02-02T04:27:15.520Z,45.55
2023-02-02T04:30:20.023Z,42.42
2023-02-02T04:33:23.423Z,46.17
2023-02-02T04:36:25.648Z,47.00
2023-02-02T04:39:27.786Z,44.40
2023-02-02T04:42:32.298Z,47.78
2023-02-02T04:45:35.041Z,44.22
2023-02-02T04:48:37.721Z,47.10
2023-02-02T04:51:41.116Z,48.25
2023-02-02T04:54:43.233Z,47.47
2023-02-02T04:57:45.497Z,49.28
2023-02-02T05:00:47.763Z,47.20
2023-02-02T05:03:49.997Z,48.20
2023-02-02T05:06:52.184Z,46.97
2023-02-02T05:09:54.294Z,48.80
2023-02-02T05:12:56.756Z,46.72
2023-02-02T05:15:58.812Z,40.63
2023-02-02T05:19:00.916Z,46.95
2023-02-02T05:22:03.052Z,43.40
2023-02-02T05:25:06.895Z,42.45
2023-02-02T05:28:09.733Z,45.10
2023-02-02T05:31:12.101Z,48.33
2023-02-02T05:34:14.335Z,46.38
2023-02-02T05:37:16.566Z,46.30
2023-02-02T05:40:18.911Z,47.45
2023-02-02T05:43:24.363Z,47.53
2023-02-02T05:46:26.491Z,45.47
2023-02-02T05:49:28.783Z,49.03
2023-02-02T05:52:35.165Z,52.65
2023-02-02T05:55:37.539Z,53.08
2023-02-02T05:58:39.851Z,50.30
2023-02-02T06:01:41.996Z,50.05
2023-02-02T06:04:44.198Z,49.70
2023-02-02T06:07:46.323Z,42.30
2023-02-02T06:10:48.512Z,43.17
2023-02-02T06:13:50.752Z,42.35
2023-02-02T06:16:52.960Z,46.70
2023-02-02T06:19:55.160Z,49.50
2023-02-02T06:22:57.286Z,50.25
2023-02-02T06:26:00.712Z,42.58
2023-02-02T06:29:03.122Z,50.58
2023-02-02T06:32:05.428Z,45.50
2023-02-02T06:35:08.341Z,49.83
2023-02-02T06:38:11.467Z,43.97
2023-02-02T06:41:13.712Z,48.13
2023-02-02T06:44:15.887Z,46.22
2023-02-02T06:47:18.076Z,52.08
2023-02-02T06:50:20.408Z,47.33
2023-02-02T06:53:23.392Z,48.42
2023-02-02T06:56:25.759Z,46.58
2023-02-02T06:59:27.893Z,49.70
2023-02-02T07:02:30.059Z,44.58
2023-02-02T07:05:32.442Z,50.58
2023-02-02T07:08:34.757Z,52.70
2023-02-02T07:11:38.523Z,52.25
2023-02-02T07:14:45.538Z,53.45
2023-02-02T07:17:47.725Z,47.35
2023-02-02T07:20:50.057Z,53.55
2023-02-02T07:23:52.233Z,52.33
2023-02-02T07:26:54.423Z,55.67
2023-02-02T07:29:56.653Z,51.72
2023-02-02T07:32:58.933Z,50.63
2023-02-02T07:36:02.093Z,55.28
2023-02-02T07:39:05.445Z,54.28
2023-02-02T07:42:08.780Z,51.47
2023-02-02T07:45:27.244Z,56.28
2023-02-02T07:48:30.964Z,54.75
2023-02-02T07:51:33.265Z,55.63
2023-02-02T07:54:35.528Z,55.58
2023-02-02T07:57:37.874Z,54.85
2023-02-02T08:00:40.037Z,52.28
2023-02-02T08:03:45.782Z,52.35
2023-02-02T08:06:48.442Z,52.35
2023-02-02T08:09:51.727Z,55.97
2023-02-02T08:12:54.000Z,52.78
2023-02-02T08:15:58.592Z,54.25
2023-02-02T08:19:01.183Z,54.83
2023-02-02T08:22:03.472Z,52.10
2023-02-02T08:25:06.234Z,50.92
2023-02-02T08:28:08.420Z,51.13
2023-02-02T08:31:17.887Z,51.22
2023-02-02T08:34:20.117Z,54.03
2023-02-02T08:37:22.264Z,52.22
2023-02-02T08:40:25.451Z,51.35
2023-02-02T08:43:29.483Z,52.08
2023-02-02T08:46:31.874Z,52.55
2023-02-02T08:49:34.069Z,51.00
2023-02-02T08:52:36.180Z,51.08
2023-02-02T08:55:38.688Z,48.13
2023-02-02T08:58:48.511Z,51.55
2023-02-02T09:01:50.738Z,51.60
2023-02-02T09:04:52.905Z,51.45
2023-02-02T09:07:55.153Z,51.95
2023-02-02T09:11:02.492Z,52.13
2023-02-02T09:14:06.817Z,50.35
2023-02-02T09:17:09.177Z,50.80
2023-02-02T09:20:11.998Z,51.60
2023-02-02T09:23:14.088Z,50.55
2023-02-02T09:26:16.306Z,52.08
2023-02-02T09:29:18.506Z,50.03
2023-02-02T09:32:20.677Z,46.15
2023-02-02T09:35:23.235Z,50.88
2023-02-02T09:38:26.193Z,49.97
2023-02-02T09:41:34.125Z,49.03
2023-02-02T09:44:39.307Z,45.60
2023-02-02T09:48:19.558Z,48.58
2023-02-02T09:54:39.252Z,46.40
2023-02-02T09:57:55.552Z,44.85
2023-02-02T10:01:17.984Z,45.22
2023-02-02T10:04:37.227Z,44.50
2023-02-02T10:07:50.218Z,47.80
2023-02-02T10:10:53.370Z,45.05
2023-02-02T10:13:59.978Z,44.38
2023-02-02T10:17:23.373Z,46.47
2023-02-02T10:20:55.813Z,47.67
2023-02-02T10:23:59.662Z,44.60
2023-02-02T10:27:08.923Z,44.42
2023-02-02T10:30:19.916Z,40.65
2023-02-02T10:33:38.846Z,42.38
2023-02-02T10:36:40.960Z,41.20
2023-02-02T10:40:12.072Z,41.65
2023-02-02T10:43:36.078Z,42.33
2023-02-02T10:46:42.813Z,41.05
2023-02-02T10:49:45.535Z,38.50
2023-02-02T10:53:13.217Z,40.00
2023-02-02T10:56:18.218Z,37.40
2023-02-02T10:59:28.427Z,38.92
2023-02-02T11:05:51.409Z,31.55
2023-02-02T11:08:59.573Z,34.67
2023-02-02T11:12:05.595Z,36.75
2023-02-02T11:15:23.272Z,31.25
2023-02-02T11:18:30.891Z,30.80
2023-02-02T11:21:34.201Z,32.30
2023-02-02T11:24:49.976Z,31.90
2023-02-02T11:27:52.446Z,31.75
2023-02-02T11:30:55.342Z,31.88
2023-02-02T11:34:20.376Z,29.95
2023-02-02T11:37:25.087Z,30.85
2023-02-02T11:40:31.405Z,29.13
2023-02-02T11:43:35.280Z,27.80
2023-02-02T11:46:38.768Z,28.10
2023-02-02T11:49:44.240Z,27.33
2023-02-02T11:52:46.525Z,25.85
2023-02-02T11:55:48.844Z,25.50
2023-02-02T11:58:52.917Z,24.08
2023-02-02T12:02:13.231Z,21.92
2023-02-02T12:08:35.434Z,19.73
2023-02-02T12:11:56.365Z,20.52
2023-02-02T12:15:04.573Z,19.50
2023-02-02T12:18:25.691Z,20.73
2023-02-02T12:21:57.191Z,19.25
2023-02-02T12:25:31.558Z,19.48
2023-02-02T12:28:58.504Z,15.50
2023-02-02T12:32:13.371Z,18.40
2023-02-02T12:35:28.130Z,17.00
2023-02-02T12:38:45.059Z,16.23
2023-02-02T12:41:56.167Z,16.60
2023-02-02T12:45:34.997Z,16.40
2023-02-02T12:48:51.603Z,16.00
2023-02-02T12:52:35.219Z,15.40
2023-02-02T12:55:52.519Z,14.50
2023-02-02T12:58:59.428Z,15.45
2023-02-02T13:02:26.298Z,15.15
2023-02-02T13:06:06.193Z,14.65
2023-02-02T13:09:19.712Z,16.08
2023-02-02T13:12:24.263Z,14.40
2023-02-02T13:15:34.464Z,14.00
2023-02-02T13:21:43.401Z,13.48
2023-02-02T13:24:48.323Z,15.23
2023-02-02T13:27:52.960Z,14.77
2023-02-02T13:30:59.206Z,16.33
2023-02-02T13:34:16.858Z,13.98
2023-02-02T13:37:26.681Z,14.80
2023-02-02T13:40:41.939Z,14.20
2023-02-02T13:44:16.637Z,14.73
2023-02-02T13:47:37.406Z,14.18
2023-02-02T13:51:01.157Z,14.90
2023-02-02T13:54:38.988Z,15.27
2023-02-02T13:58:05.342Z,15.35
2023-02-02T14:01:11.051Z,14.02
2023-02-02T14:04:28.526Z,14.13
2023-02-02T14:07:42.946Z,15.38
2023-02-02T14:10:58.440Z,14.95
2023-02-02T14:14:35.231Z,13.50
2023-02-02T14:17:37.532Z,14.02
2023-02-02T14:20:49.212Z,14.85
2023-02-02T14:23:55.594Z,13.73
2023-02-02T14:27:00.045Z,13.35
2023-02-02T14:30:17.680Z,13.73
2023-02-02T14:33:22.599Z,14.90
2023-02-02T14:36:26.148Z,13.23
2023-02-02T14:39:34.258Z,14.00
2023-02-02T14:43:49.805Z,11.73
2023-02-02T14:46:52.053Z,11.38
2023-02-02T14:49:57.721Z,12.60
2023-02-02T14:53:05.031Z,12.45
2023-02-02T14:56:17.615Z,11.95
2023-02-02T14:59:26.598Z,11.60
2023-02-02T15:02:38.863Z,12.07
2023-02-02T15:05:46.390Z,10.68
2023-02-02T15:09:33.739Z,9.93
2023-02-02T15:12:43.463Z,10.43
2023-02-02T15:15:48.863Z,10.48
2023-02-02T15:19:00.272Z,9.80
2023-02-02T15:22:26.923Z,9.35
2023-02-02T15:25:45.853Z,9.82
2023-02-02T15:28:52.079Z,8.80
2023-02-02T15:31:55.858Z,8.85
2023-02-02T15:35:04.986Z,9.38
2023-02-02T15:38:15.371Z,8.50
2023-02-02T15:41:34.115Z,9.07
2023-02-02T15:44:37.908Z,8.85
2023-02-02T15:47:42.632Z,7.93
2023-02-02T15:50:46.759Z,7.80
2023-02-02T15:53:51.920Z,8.48
2023-02-02T15:56:55.569Z,8.05
2023-02-02T15:59:58.595Z,7.53
2023-02-02T16:03:14.653Z,7.28
2023-02-02T16:06:18.407Z,7.47
2023-02-02T16:09:27.289Z,8.07
2023-02-02T16:12:29.450Z,7.80
2023-02-02T16:15:32.933Z,7.05
2023-02-02T16:18:36.099Z,6.45
2023-02-02T16:21:53.571Z,6.68
2023-02-02T16:24:59.461Z,6.70
2023-02-02T16:28:03.265Z,6.18
2023-02-02T16:31:07.092Z,6.43
2023-02-02T16:34:18.607Z,5.68
2023-02-02T16:37:29.880Z,6.45
2023-02-02T16:40:32.023Z,5.85
2023-02-02T16:43:36.026Z,5.78
2023-02-02T16:46:49.728Z,5.97
2023-02-02T16:50:28.614Z,6.00
2023-02-02T16:53:31.216Z,5.85
2023-02-02T16:56:40.337Z,5.85
2023-02-02T16:59:48.831Z,5.35
2023-02-02T17:02:58.454Z,4.93
2023-02-02T17:06:01.882Z,4.90
2023-02-02T17:09:38.047Z,5.22
2023-02-02T17:12:40.244Z,5.13
2023-02-02T17:15:42.440Z,5.60
2023-02-02T17:18:44.658Z,4.90
2023-02-02T17:21:49.624Z,5.15
2023-02-02T17:24:52.734Z,5.70
2023-02-02T17:27:56.054Z,5.15
2023-02-02T17:31:00.174Z,5.40
2023-02-02T17:34:02.432Z,5.10
2023-02-02T17:37:04.534Z,5.32
2023-02-02T17:40:07.404Z,4.60
2023-02-02T17:43:12.095Z,5.05
2023-02-02T17:46:14.390Z,5.03
2023-02-02T17:49:16.549Z,5.20
2023-02-02T17:52:18.769Z,4.85
2023-02-02T17:55:27.830Z,4.95
2023-02-02T17:58:30.106Z,4.78
2023-02-02T18:01:32.554Z,4.38
2023-02-02T18:04:35.890Z,5.00
2023-02-02T18:07:38.030Z,5.25
2023-02-02T18:10:41.583Z,5.35
2023-02-02T18:13:44.378Z,5.55
2023-02-02T18:16:46.469Z,4.90
2023-02-02T18:19:51.276Z,4.78
2023-02-02T18:22:53.677Z,5.38
2023-02-02T18:25:55.821Z,5.13
2023-02-02T18:28:59.275Z,5.88
2023-02-02T18:32:02.382Z,4.75
2023-02-02T18:35:06.162Z,5.10
2023-02-02T18:38:08.771Z,5.43
2023-02-02T18:41:15.083Z,5.05
2023-02-02T18:44:17.418Z,4.90
2023-02-02T18:47:19.649Z,4.63
2023-02-02T18:50:22.252Z,4.88
2023-02-02T18:53:24.666Z,4.53
2023-02-02T18:56:28.138Z,4.45
2023-02-02T18:59:32.397Z,5.10
2023-02-02T19:02:34.598Z,4.63
2023-02-02T19:06:02.683Z,4.47
2023-02-02T19:09:06.169Z,5.13
2023-02-02T19:12:13.888Z,4.60
2023-02-02T19:15:16.048Z,4.43
2023-02-02T19:18:20.833Z,4.45
2023-02-02T19:21:23.140Z,4.72
2023-02-02T19:24:27.329Z,4.60
2023-02-02T19:27:31.713Z,4.53
2023-02-02T19:30:33.969Z,4.25
2023-02-02T19:33:40.578Z,4.38
2023-02-02T19:36:46.856Z,4.97
2023-02-02T19:39:50.989Z,4.70
2023-02-02T19:43:08.013Z,4.47
2023-02-02T19:46:25.651Z,4.55
2023-02-02T19:49:34.286Z,5.20
2023-02-02T19:52:37.591Z,4.30
2023-02-02T19:55:42.010Z,5.40
2023-02-02T19:58:49.330Z,4.88
2023-02-02T20:01:52.535Z,4.80
2023-02-02T20:05:08.263Z,4.57
2023-02-02T20:08:38.174Z,5.50
2023-02-02T20:11:42.497Z,5.18
2023-02-02T20:14:44.815Z,5.07
2023-02-02T20:17:47.061Z,5.50
2023-02-02T20:20:57.273Z,5.40
2023-02-02T20:23:59.580Z,5.65
2023-02-02T20:27:11.846Z,5.25
2023-02-02T20:30:26.788Z,6.05
2023-02-02T20:33:29.147Z,5.40
2023-02-02T20:36:39.093Z,6.03
2023-02-02T20:39:47.941Z,6.25
2023-02-02T20:42:50.716Z,6.15
2023-02-02T20:45:53.001Z,6.72
2023-02-02T20:48:55.266Z,7.28
2023-02-02T20:52:00.076Z,7.63
2023-02-02T20:55:02.405Z,8.60
2023-02-02T20:58:05.551Z,8.10
2023-02-02T21:01:08.254Z,8.98
2023-02-02T21:04:10.597Z,9.30
2023-02-02T21:07:13.219Z,10.23
2023-02-02T21:10:15.793Z,11.07
2023-02-02T21:13:17.932Z,10.15
2023-02-02T21:16:20.149Z,11.55
2023-02-02T21:19:22.315Z,10.73
2023-02-02T21:22:24.453Z,12.52
2023-02-02T21:25:26.697Z,12.43
2023-02-02T21:28:31.362Z,11.25
2023-02-02T21:31:35.424Z,13.13
2023-02-02T21:34:37.937Z,13.45
2023-02-02T21:37:40.687Z,14.25
2023-02-02T21:40:42.945Z,13.90
2023-02-02T21:43:45.199Z,14.02
2023-02-02T21:46:52.549Z,16.33
2023-02-02T21:49:57.098Z,14.55
2023-02-02T21:53:18.553Z,14.15
2023-02-02T21:56:29.162Z,16.90
2023-02-02T21:59:36.891Z,17.08
2023-02-02T22:02:44.627Z,18.02
2023-02-02T22:05:47.100Z,18.52
2023-02-02T22:08:49.840Z,18.42
2023-02-02T22:12:02.167Z,19.73
2023-02-02T22:15:18.495Z,20.55
2023-02-02T22:18:24.985Z,20.85
2023-02-02T22:21:27.315Z,21.17
2023-02-02T22:24:29.713Z,20.50
2023-02-02T22:27:41.678Z,19.77
2023-02-02T22:30:44.262Z,23.58
2023-02-02T22:33:46.452Z,24.95
2023-02-02T22:36:48.627Z,24.67
2023-02-02T22:39:50.825Z,24.58
2023-02-02T22:42:55.427Z,24.42
2023-02-02T22:45:57.646Z,25.50
2023-02-02T22:48:59.832Z,28.02
2023-02-02T22:52:01.930Z,29.63
2023-02-02T22:55:04.170Z,29.88
2023-02-02T22:58:06.641Z,30.45
2023-02-02T23:01:09.561Z,27.55
2023-02-02T23:04:11.805Z,31.67
2023-02-02T23:07:14.112Z,31.25
2023-02-02T23:10:19.373Z,32.13
2023-02-02T23:13:21.532Z,34.72
2023-02-02T23:16:23.888Z,35.67
2023-02-02T23:19:26.060Z,33.40
2023-02-02T23:22:28.115Z,37.97
2023-02-02T23:25:30.298Z,34.78
2023-02-02T23:28:32.404Z,37.70
2023-02-02T23:31:34.696Z,38.55
2023-02-02T23:34:36.876Z,35.65
2023-02-02T23:37:39.189Z,37.53
2023-02-02T23:40:41.285Z,41.72
2023-02-02T23:43:43.418Z,40.90
2023-02-02T23:46:45.683Z,39.65
2023-02-02T23:49:47.930Z,40.42
2023-02-02T23:52:50.098Z,42.80
2023-02-02T23:55:52.376Z,43.95
2023-02-02T23:58:54.523Z,43.08
